Time;durP1;ratioP1;P1;durP2;ratioP2;P2;SDS_P1;SDS_P2;PMS_P1;PMS_P2;Temp;Humidity;BMP_temperature;BMP_pressure;BME280_temperature;BME280_humidity;BME280_pressure;Samples;Min_cycle;Max_cycle;Signal;HPM_P1;HPM_P2
2023/10/18 00:00:04;;;;;;;18.70;10.48;;;;;;;;;;5072484;28;20040;-77
2023/10/18 00:02:30;;;;;;;17.80;9.80;;;;;;;;;;5075182;28;20055;-72
2023/10/18 00:04:57;;;;;;;20.55;9.70;;;;;;;;;;5089310;28;20020;-74
2023/10/18 00:07:22;;;;;;;18.33;9.85;;;;;;;;;;5076354;28;20039;-72
2023/10/18 00:09:50;;;;;;;23.65;10.43;;;;;;;;;;5074999;28;20280;-72
2023/10/18 00:12:16;;;;;;;17.38;9.55;;;;;;;;;;5076098;28;20032;-72
2023/10/18 00:14:43;;;;;;;17.02;9.20;;;;;;;;;;5075371;28;20032;-72
2023/10/18 00:17:09;;;;;;;17.45;9.63;;;;;;;;;;5073904;28;20032;-73
2023/10/18 00:19:34;;;;;;;18.50;9.63;;;;;;;;;;5074127;28;20032;-72
2023/10/18 00:22:00;;;;;;;17.55;9.63;;;;;;;;;;5079452;28;20021;-71
2023/10/18 00:24:25;;;;;;;20.38;9.02;;;;;;;;;;5059657;28;20024;-72
2023/10/18 00:26:51;;;;;;;16.80;9.13;;;;;;;;;;5075146;28;20027;-73
2023/10/18 00:29:17;;;;;;;15.02;8.88;;;;;;;5.41;nan;100830.63;5078227;28;20276;-72
2023/10/18 00:31:43;;;;;;;17.85;9.60;;;;;;;;;;5077490;28;20512;-73
2023/10/18 00:34:08;;;;;;;18.20;10.20;;;;;;;;;;5073449;28;20036;-73
2023/10/18 00:36:34;;;;;;;21.60;9.23;;;;;;;;;;5074239;28;20031;-70
2023/10/18 00:38:59;;;;;;;15.38;8.90;;;;;;;;;;5068490;28;20068;-73
2023/10/18 00:41:43;;;;;;;16.50;9.63;;;;;;;;;;5059550;28;20109;-72
2023/10/18 00:44:12;;;;;;;16.17;8.60;;;;;;;;;;5091629;28;20027;-72
2023/10/18 00:46:52;;;;;;;17.70;9.00;;;;;;;;;;5075744;28;20414;-74
2023/10/18 00:49:18;;;;;;;16.15;8.82;;;;;;;;;;5072286;28;20021;-71
2023/10/18 00:51:44;;;;;;;17.15;8.73;;;;;;;;;;5075944;28;20376;-73
2023/10/18 00:54:12;;;;;;;14.80;8.85;;;;;;;;;;5076622;28;20028;-73
2023/10/18 00:56:43;;;;;;;14.60;8.93;;;;;;;;;;5074541;28;20020;-73
2023/10/18 00:59:14;;;;;;;15.35;8.13;;;;;;;;;;5075193;28;20028;-72
2023/10/18 01:01:43;;;;;;;16.25;9.25;;;;;;;;;;5059537;28;20028;-73
2023/10/18 01:04:12;;;;;;;18.58;8.90;;;;;;;;;;5091071;28;20032;-72
2023/10/18 01:06:41;;;;;;;19.42;9.80;;;;;;;;;;5088585;28;20454;-73
2023/10/18 01:09:06;;;;;;;17.23;8.85;;;;;;;;;;5073700;28;20040;-73
2023/10/18 01:11:31;;;;;;;15.43;9.05;;;;;;;;;;5074755;28;20423;-72
2023/10/18 01:14:00;;;;;;;17.15;8.77;;;;;;;;;;5058909;28;20024;-73
2023/10/18 01:16:35;;;;;;;15.95;8.73;;;;;;;;;;5071949;28;20480;-72
2023/10/18 01:19:01;;;;;;;15.07;8.80;;;;;;;;;;5072910;28;20651;-73
2023/10/18 01:21:27;;;;;;;18.42;9.63;;;;;;;;;;5071211;28;20093;-75
2023/10/18 01:23:54;;;;;;;15.38;8.90;;;;;;;;;;5072769;28;20101;-76
2023/10/18 01:26:19;;;;;;;15.38;8.40;;;;;;;;;;5071779;28;20028;-71
2023/10/18 01:28:46;;;;;;;16.23;8.25;;;;;;;;;;5072949;28;20101;-75
2023/10/18 01:31:12;;;;;;;15.65;8.50;;;;;;;;;;5087092;28;20112;-76
2023/10/18 01:33:45;;;;;;;15.25;8.52;;;;;;;;;;5057883;28;20119;-75
2023/10/18 01:36:13;;;;;;;15.77;8.30;;;;;;;;;;5061663;28;20032;-76
2023/10/18 01:38:39;;;;;;;20.52;8.18;;;;;;;;;;5057958;28;20055;-77
2023/10/18 01:41:25;;;;;;;15.82;8.68;;;;;;;;;;5076177;28;20020;-76
2023/10/18 01:43:51;;;;;;;14.98;8.15;;;;;;;;;;5072840;28;20036;-75
2023/10/18 01:46:16;;;;;;;13.77;7.93;;;;;;;;;;5073107;28;20043;-74
2023/10/18 01:48:46;;;;;;;21.23;8.25;;;;;;;;;;5058185;28;20075;-76
2023/10/18 01:51:14;;;;;;;17.48;8.63;;;;;;;;;;5076823;28;20012;-75
2023/10/18 01:53:41;;;;;;;15.40;8.30;;;;;;;;;;5074103;28;20536;-75
2023/10/18 01:56:07;;;;;;;17.75;8.15;;;;;;;;;;5073390;28;20028;-76
2023/10/18 01:58:35;;;;;;;16.85;8.48;;;;;;;;;;5071998;28;20513;-75
2023/10/18 02:01:02;;;;;;;11.60;7.32;;;;;;;;;;5074552;28;20016;-76
2023/10/18 02:03:28;;;;;;;14.32;7.80;;;;;;;;;;5074040;28;20111;-75
2023/10/18 02:05:54;;;;;;;15.57;8.18;;;;;;;;;;5066578;28;20031;-75
2023/10/18 02:08:20;;;;;;;16.88;9.07;;;;;;;;;;5061855;28;20029;-72
2023/10/18 02:10:46;;;;;;;14.98;8.43;;;;;;;;;;5076690;28;20023;-78
2023/10/18 02:13:15;;;;;;;19.35;8.35;;;;;;;;;;5064678;28;20024;-78
2023/10/18 02:15:40;;;;;;;14.38;7.97;;;;;;;;;;5078265;28;20113;-79
2023/10/18 02:18:08;;;;;;;11.88;7.38;;;;;;;;;;5076241;28;20559;-77
2023/10/18 02:20:35;;;;;;;17.23;9.35;;;;;;;;;;5078384;28;20024;-73
2023/10/18 02:23:01;;;;;;;13.88;7.60;;;;;;;;;;5063682;28;20055;-72
2023/10/18 02:25:42;;;;;;;13.93;8.20;;;;;;;;;;5077354;28;20028;-73
2023/10/18 02:28:08;;;;;;;18.27;7.93;;;;;;;;;;5075597;28;20024;-72
2023/10/18 02:30:37;;;;;;;15.25;8.35;;;;;;;;;;5075761;28;20082;-73
2023/10/18 02:33:04;;;;;;;;;;;;;;;;;;5076592;28;20024;-72
2023/10/18 02:35:30;;;;;;;13.57;7.43;;;;;;;;;;5078395;28;20417;-72
2023/10/18 02:37:55;;;;;;;16.50;8.98;;;;;;;;;;5077051;28;20028;-72
2023/10/18 02:40:29;;;;;;;18.67;8.43;;;;;;;;;;5091458;28;20486;-73
2023/10/18 02:42:57;;;;;;;18.08;8.70;;;;;;;4.89;nan;100835.72;5080031;28;20265;-76
2023/10/18 02:45:22;;;;;;;17.50;8.48;;;;;;;;;;5079181;28;20052;-75
2023/10/18 02:47:51;;;;;;;18.40;8.87;;;;;;;;;;5094009;28;20066;-72
2023/10/18 02:50:17;;;;;;;15.32;8.27;;;;;;;;;;5076109;28;20240;-74
2023/10/18 02:52:43;;;;;;;72.90;18.65;;;;;;;;;;5080163;28;20059;-75
2023/10/18 02:55:12;;;;;;;55.25;14.95;;;;;;;;;;5091483;27;20063;-75
2023/10/18 02:57:37;;;;;;;22.80;9.80;;;;;;;;;;5092703;28;20740;-75
2023/10/18 03:00:10;;;;;;;16.38;9.13;;;;;;;;;;5076411;28;20036;-75
2023/10/18 03:02:36;;;;;;;21.65;9.77;;;;;;;;;;5068746;28;20034;-77
2023/10/18 03:05:05;;;;;;;20.02;10.25;;;;;;;;;;5078039;28;20023;-74
2023/10/18 03:07:30;;;;;;;22.85;10.35;;;;;;;;;;5076949;28;20023;-75
2023/10/18 03:10:02;;;;;;;25.37;10.87;;;;;;;;;;5074950;28;20530;-75
2023/10/18 03:12:28;;;;;;;22.13;10.85;;;;;;;;;;5078255;28;20725;-75
2023/10/18 03:14:54;;;;;;;24.83;11.52;;;;;;;;;;5073804;28;20031;-75
2023/10/18 03:19:49;;;;;;;21.92;9.90;;;;;;;;;;5073322;28;20039;-72
2023/10/18 03:22:18;;;;;;;18.90;9.63;;;;;;;;;;5072850;28;20028;-73
2023/10/18 03:24:44;;;;;;;16.30;8.35;;;;;;;;;;5073614;28;20024;-72
2023/10/18 03:27:10;;;;;;;16.38;9.07;;;;;;;;;;5067586;28;20073;-73
2023/10/18 03:29:37;;;;;;;17.02;8.85;;;;;;;;;;5066019;28;21032;-72
2023/10/18 03:32:06;;;;;;;17.85;9.07;;;;;;;;;;5075940;28;20110;-73
2023/10/18 03:34:35;;;;;;;21.25;10.18;;;;;;;;;;5058826;28;20074;-73
2023/10/18 03:37:00;;;;;;;19.07;9.37;;;;;;;;;;5077657;28;20038;-74
2023/10/18 03:39:25;;;;;;;19.88;9.98;;;;;;;;;;5076722;28;20040;-73
2023/10/18 03:41:52;;;;;;;19.07;10.17;;;;;;;;;;5062761;28;20069;-72
2023/10/18 03:44:21;;;;;;;20.25;10.23;;;;;;;;;;5073633;28;20034;-73
2023/10/18 03:46:47;;;;;;;21.23;10.20;;;;;;;;;;5073516;28;20032;-74
2023/10/18 03:51:56;;;;;;;16.88;10.20;;;;;;;;;;5077329;28;20052;-73
2023/10/18 03:54:23;;;;;;;23.73;11.70;;;;;;;;;;5075637;28;20048;-73
2023/10/18 03:56:52;;;;;;;25.67;10.95;;;;;;;;;;5074776;28;20564;-73
2023/10/18 03:59:21;;;;;;;21.58;11.27;;;;;;;;;;5076028;28;20639;-73
2023/10/18 04:02:04;;;;;;;19.80;10.82;;;;;;;;;;5060500;28;20017;-72
2023/10/18 04:04:36;;;;;;;21.00;11.15;;;;;;;;;;5076842;28;20031;-73
2023/10/18 04:07:12;;;;;;;24.40;11.45;;;;;;;;;;5075131;28;20078;-73
2023/10/18 04:09:39;;;;;;;21.88;11.32;;;;;;;;;;5057780;28;20033;-73
2023/10/18 04:12:05;;;;;;;19.92;10.45;;;;;;;;;;5077604;28;20508;-73
2023/10/18 04:14:33;;;;;;;20.80;10.43;;;;;;;;;;5074137;28;20040;-72
2023/10/18 04:16:58;;;;;;;20.85;10.63;;;;;;;;;;5075449;28;20083;-76
2023/10/18 04:19:24;;;;;;;21.47;11.23;;;;;;;;;;5057727;28;20630;-74
2023/10/18 04:21:53;;;;;;;23.58;11.73;;;;;;;;;;5066375;28;20277;-74
2023/10/18 04:24:20;;;;;;;20.23;10.30;;;;;;;;;;5089036;28;21099;-71
2023/10/18 04:26:47;;;;;;;25.27;10.48;;;;;;;;;;5075403;28;20555;-72
2023/10/18 04:29:21;;;;;;;18.58;10.27;;;;;;;;;;5073706;28;20494;-73
2023/10/18 04:31:48;;;;;;;21.65;10.55;;;;;;;;;;5074949;28;20020;-72
2023/10/18 04:34:18;;;;;;;30.50;12.25;;;;;;;;;;5074280;28;20502;-72
2023/10/18 04:36:43;;;;;;;26.83;11.52;;;;;;;;;;5076274;28;20402;-75
2023/10/18 04:39:11;;;;;;;21.23;11.37;;;;;;;;;;5073992;28;20040;-73
2023/10/18 04:41:36;;;;;;;22.42;10.40;;;;;;;;;;5075013;28;20317;-75
2023/10/18 04:46:31;;;;;;;25.83;10.90;;;;;;;;;;5077730;28;20043;-77
2023/10/18 04:53:56;;;;;;;18.48;10.23;;;;;;;;;;5075290;28;20032;-72
2023/10/18 04:56:29;;;;;;;23.63;11.15;;;;;;;;;;5074539;28;20032;-74
2023/10/18 04:58:55;;;;;;;20.50;10.13;;;;;;;;;;5076462;28;20029;-72
2023/10/18 05:01:22;;;;;;;30.90;10.25;;;;;;;;;;5072667;28;20034;-73
2023/10/18 05:03:50;;;;;;;22.35;10.38;;;;;;;;;;5074318;28;20063;-75
2023/10/18 05:06:16;;;;;;;27.23;10.98;;;;;;;;;;5074711;28;20043;-76
2023/10/18 05:08:42;;;;;;;28.00;10.45;;;;;;;3.84;nan;100859.69;5066082;28;20028;-74
2023/10/18 05:11:23;;;;;;;25.65;10.85;;;;;;;;;;5057294;28;20021;-73
2023/10/18 05:13:48;;;;;;;28.10;11.50;;;;;;;;;;5075995;28;20024;-73
2023/10/18 05:16:13;;;;;;;23.42;10.95;;;;;;;;;;5056132;28;20390;-75
2023/10/18 05:18:39;;;;;;;22.67;10.75;;;;;;;;;;5074761;28;20107;-75
2023/10/18 05:21:10;;;;;;;19.95;10.32;;;;;;;;;;5075864;28;20024;-75
2023/10/18 05:23:36;;;;;;;26.13;12.02;;;;;;;;;;5070308;28;20468;-74
2023/10/18 05:28:49;;;;;;;22.75;10.43;;;;;;;;;;5072359;28;20029;-76
2023/10/18 05:31:44;;;;;;;34.67;10.80;;;;;;;;;;5070188;28;20028;-75
2023/10/18 05:36:35;;;;;;;21.67;10.75;;;;;;;;;;5074146;28;20035;-76
2023/10/18 05:39:49;;;;;;;23.25;11.77;;;;;;;;;;5057872;28;20044;-74
2023/10/18 05:41:59;;;;;;;22.63;11.52;;;;;;;;;;5055557;28;20051;-72
2023/10/18 05:44:24;;;;;;;25.70;10.60;;;;;;;;;;5056960;28;20759;-74
2023/10/18 05:46:50;;;;;;;27.40;10.35;;;;;;;;;;5061105;28;20054;-73
2023/10/18 05:49:16;;;;;;;24.65;9.95;;;;;;;;;;5057047;28;20082;-76
2023/10/18 05:51:53;;;;;;;19.88;9.70;;;;;;;;;;5058669;28;20036;-75
2023/10/18 05:54:19;;;;;;;27.67;10.57;;;;;;;;;;5057491;28;20043;-76
2023/10/18 05:56:49;;;;;;;19.45;10.30;;;;;;;;;;5057263;28;20036;-76
2023/10/18 06:01:46;;;;;;;24.70;11.10;;;;;;;;;;5055929;28;20033;-76
2023/10/18 06:04:13;;;;;;;28.48;12.70;;;;;;;;;;5062943;28;20033;-75
2023/10/18 06:06:39;;;;;;;19.92;10.73;;;;;;;;;;5058083;28;20033;-74
2023/10/18 06:09:10;;;;;;;24.73;11.00;;;;;;;;;;5061592;28;20402;-75
2023/10/18 06:11:36;;;;;;;23.55;9.40;;;;;;;;;;5058956;28;20078;-72
2023/10/18 06:14:05;;;;;;;18.30;9.30;;;;;;;;;;5054633;28;20478;-71
2023/10/18 06:16:34;;;;;;;21.38;10.50;;;;;;;;;;5054511;28;20047;-72
2023/10/18 06:19:01;;;;;;;20.58;9.95;;;;;;;;;;5055524;28;20132;-73
2023/10/18 06:21:26;;;;;;;24.48;9.63;;;;;;;;;;5056125;28;20398;-73
2023/10/18 06:23:54;;;;;;;22.40;10.15;;;;;;;;;;5057626;28;20025;-75
2023/10/18 06:26:29;;;;;;;20.02;10.00;;;;;;;;;;5059144;28;20047;-75
2023/10/18 06:29:12;;;;;;;21.90;11.48;;;;;;;;;;5059474;28;20107;-76
2023/10/18 06:31:46;;;;;;;18.23;9.68;;;;;;;;;;5055375;28;20085;-75
2023/10/18 06:34:17;;;;;;;22.88;10.55;;;;;;;;;;5058576;28;20032;-73
2023/10/18 06:36:42;;;;;;;22.73;11.15;;;;;;;;;;5056906;28;20025;-72
2023/10/18 06:39:08;;;;;;;18.95;10.32;;;;;;;;;;5064263;28;20048;-75
2023/10/18 06:41:33;;;;;;;21.52;10.85;;;;;;;;;;5079132;28;20032;-75
2023/10/18 06:43:58;;;;;;;25.20;11.67;;;;;;;;;;5077285;28;20082;-75
2023/10/18 06:46:26;;;;;;;22.33;11.32;;;;;;;;;;5063732;28;20366;-76
2023/10/18 06:48:55;;;;;;;26.55;10.63;;;;;;;;;;5075455;28;20066;-77
2023/10/18 06:51:33;;;;;;;21.80;10.82;;;;;;;;;;5076822;28;20035;-74
2023/10/18 06:54:03;;;;;;;23.30;11.45;;;;;;;;;;5058075;28;20025;-72
2023/10/18 06:56:32;;;;;;;27.05;12.00;;;;;;;;;;5079711;28;20413;-72
2023/10/18 06:59:04;;;;;;;25.30;10.87;;;;;;;;;;5074934;28;20055;-72
2023/10/18 07:01:32;;;;;;;25.30;10.63;;;;;;;;;;5074421;28;20289;-73
2023/10/18 07:04:00;;;;;;;24.23;11.03;;;;;;;;;;5075812;28;20386;-74
2023/10/18 07:06:29;;;;;;;27.42;11.82;;;;;;;;;;5076535;28;20016;-73
2023/10/18 07:08:55;;;;;;;;;;;;;;;;;;5075615;28;20056;-73
2023/10/18 07:11:22;;;;;;;26.90;10.30;;;;;;;;;;5075834;28;19923;-73
2023/10/18 07:13:49;;;;;;;21.10;10.07;;;;;;;;;;5078734;28;20020;-74
2023/10/18 07:16:16;;;;;;;21.70;10.45;;;;;;;;;;5061291;28;20028;-74
2023/10/18 07:18:44;;;;;;;25.67;10.60;;;;;;;;;;5057011;28;20027;-73
2023/10/18 07:21:11;;;;;;;21.65;9.80;;;;;;;;;;5072974;28;20056;-73
2023/10/18 07:23:37;;;;;;;20.15;9.55;;;;;;;;;;5076849;28;20032;-74
2023/10/18 07:26:07;;;;;;;21.92;10.10;;;;;;;;;;5075778;28;20108;-73
2023/10/18 07:28:35;;;;;;;18.35;9.05;;;;;;;;;;5078567;28;20085;-73
2023/10/18 07:31:01;;;;;;;20.45;8.43;;;;;;;;;;5074721;28;20082;-71
2023/10/18 07:33:26;;;;;;;18.58;8.63;;;;;;;;;;5061559;28;20028;-72
2023/10/18 07:35:52;;;;;;;19.55;8.05;;;;;;;;;;5074287;28;20535;-71
2023/10/18 07:38:25;;;;;;;17.08;8.10;;;;;;;;;;5076532;28;20043;-71
2023/10/18 07:40:57;;;;;;;18.00;8.55;;;;;;;;;;5075347;28;20025;-71
2023/10/18 07:43:24;;;;;;;19.20;8.70;;;;;;;;;;5075931;28;20028;-71
2023/10/18 07:45:54;;;;;;;17.77;8.95;;;;;;;;;;5075783;28;20141;-72
2023/10/18 07:48:19;;;;;;;18.15;8.73;;;;;;;;;;5074692;28;20074;-71
2023/10/18 07:50:49;;;;;;;18.00;8.07;;;;;;;;;;5074306;28;20060;-74
2023/10/18 07:53:15;;;;;;;20.27;9.38;;;;;;;;;;5088708;28;20028;-72
2023/10/18 07:55:43;;;;;;;18.63;8.18;;;;;;;;;;5075512;28;20031;-74
2023/10/18 07:58:18;;;;;;;17.50;7.28;;;;;;;;;;5075846;28;20035;-72
2023/10/18 08:01:06;;;;;;;17.98;7.80;;;;;;;;;;5066278;28;20036;-73
2023/10/18 08:03:29;;;;;;;16.58;7.35;;;;;;;;;;5072690;28;20051;-73
2023/10/18 08:05:56;;;;;;;13.27;7.07;;;;;;;;;;5073757;28;20037;-73
2023/10/18 08:08:24;;;;;;;14.57;7.68;;;;;;;;;;5063948;28;20631;-73
2023/10/18 08:10:50;;;;;;;13.40;7.50;;;;;;;;;;5072454;28;20576;-73
2023/10/18 08:13:16;;;;;;;14.77;6.95;;;;;;;;;;5075519;28;20067;-73
2023/10/18 08:15:50;;;;;;;16.02;7.10;;;;;;;;;;5074849;28;20020;-74
2023/10/18 08:18:16;;;;;;;13.05;7.38;;;;;;;;;;5073411;28;20032;-73
2023/10/18 08:26:05;;;;;;;14.70;5.80;;;;;;;;;;5076297;28;20501;-71
2023/10/18 08:28:40;;;;;;;13.57;6.72;;;;;;;;;;5074816;28;20043;-71
2023/10/18 08:31:29;;;;;;;17.92;7.63;;;;;;;;;;5074194;28;20028;-71
2023/10/18 08:33:54;;;;;;;13.63;6.15;;;;;;;;;;5075092;28;20088;-71
2023/10/18 08:36:29;;;;;;;13.50;7.25;;;;;;;;;;5058768;28;20456;-71
2023/10/18 08:38:54;;;;;;;17.85;7.80;;;;;;;;;;5074276;28;20047;-71
2023/10/18 08:41:21;;;;;;;20.75;7.78;;;;;;;;;;5074674;28;20506;-71
2023/10/18 08:43:46;;;;;;;12.52;6.47;;;;;;;;;;5069516;28;20520;-70
2023/10/18 08:46:12;;;;;;;9.27;5.70;;;;;;;;;;5057699;28;20037;-71
2023/10/18 08:48:39;;;;;;;16.83;6.03;;;;;;;;;;5072628;28;20681;-71
2023/10/18 08:51:08;;;;;;;10.95;5.75;;;;;;;;;;5073870;28;20710;-72
2023/10/18 08:53:35;;;;;;;13.02;6.10;;;;;;;;;;5074425;28;20028;-72
2023/10/18 08:56:05;;;;;;;15.07;5.75;;;;;;;;;;5064554;28;20489;-72
2023/10/18 08:58:30;;;;;;;15.98;5.15;;;;;;;;;;5073222;28;20039;-72
2023/10/18 09:03:24;;;;;;;14.05;4.90;;;;;;;;;;5072416;28;20138;-72
2023/10/18 09:05:52;;;;;;;14.95;5.07;;;;;;;;;;5074481;28;20119;-72
2023/10/18 09:08:26;;;;;;;15.15;5.22;;;;;;;;;;5072491;28;20044;-74
2023/10/18 09:10:54;;;;;;;11.50;4.95;;;;;;;;;;5076034;28;20035;-71
2023/10/18 09:15:55;;;;;;;8.65;4.80;;;;;;;;;;5074813;28;20032;-72
2023/10/18 09:18:21;;;;;;;11.95;5.00;;;;;;;;;;5075716;28;20028;-72
2023/10/18 09:20:47;;;;;;;10.05;4.90;;;;;;;;;;5081278;28;20539;-72
2023/10/18 09:23:24;;;;;;;12.95;5.38;;;;;;;;;;5077427;28;20024;-78
2023/10/18 09:26:01;;;;;;;11.48;5.53;;;;;;;;;;5080303;28;20024;-77
2023/10/18 09:28:32;;;;;;;12.00;5.28;;;;;;;;;;5080427;28;20028;-76
2023/10/18 09:31:10;;;;;;;10.88;5.10;;;;;;;;;;5078659;28;20031;-77
2023/10/18 09:33:36;;;;;;;12.10;5.00;;;;;;;;;;5075434;28;20512;-78
2023/10/18 09:36:02;;;;;;;11.02;5.00;;;;;;;;;;5064148;28;20036;-77
2023/10/18 09:38:41;;;;;;;11.30;4.50;;;;;;;;;;5080563;28;20052;-78
2023/10/18 09:41:07;;;;;;;10.10;3.83;;;;;;;;;;5078064;28;20164;-78
2023/10/18 09:43:38;;;;;;;9.90;4.60;;;;;;;;;;5079394;28;20579;-77
2023/10/18 09:46:08;;;;;;;13.70;4.65;;;;;;;;;;5078484;28;20080;-71
2023/10/18 09:48:33;;;;;;;;;;;;;;;;;;5076445;28;20058;-72
2023/10/18 09:51:06;;;;;;;8.15;3.65;;;;;;;;;;5081264;28;19965;-72
2023/10/18 09:53:48;;;;;;;9.57;3.25;;;;;;;;;;5077850;28;20402;-72
2023/10/18 09:56:15;;;;;;;7.35;3.08;;;;;;;;;;5078879;28;20115;-72
2023/10/18 09:58:44;;;;;;;7.72;3.10;;;;;;;;;;5075298;28;20082;-72
2023/10/18 10:01:25;;;;;;;7.63;3.28;;;;;;;;;;5078786;28;20803;-73
2023/10/18 10:03:52;;;;;;;8.88;3.50;;;;;;;;;;5075376;28;20086;-73
2023/10/18 10:06:21;;;;;;;4.82;2.60;;;;;;;;;;5078076;28;20556;-71
2023/10/18 10:08:48;;;;;;;6.03;2.58;;;;;;;;;;5076158;28;20064;-73
2023/10/18 10:11:18;;;;;;;5.45;2.85;;;;;;;;;;5076928;28;20503;-72
2023/10/18 10:13:44;;;;;;;6.38;2.85;;;;;;;;;;5077622;28;20031;-71
2023/10/18 10:16:10;;;;;;;6.20;2.80;;;;;;;;;;5064709;28;20134;-71
2023/10/18 10:18:37;;;;;;;6.45;3.00;;;;;;;;;;5075894;28;20381;-71
2023/10/18 10:21:07;;;;;;;8.15;3.67;;;;;;;;;;5077384;28;20104;-72
2023/10/18 10:23:33;;;;;;;8.52;3.40;;;;;;;;;;5076834;28;20102;-71
2023/10/18 10:26:22;;;;;;;3.83;2.65;;;;;;;;;;5066294;28;20482;-71
2023/10/18 10:31:54;;;;;;;9.30;3.00;;;;;;;;;;5077195;28;20241;-72
2023/10/18 10:34:26;;;;;;;9.05;2.63;;;;;;;;;;5071385;28;20037;-72
2023/10/18 10:37:12;;;;;;;4.47;2.60;;;;;;;;;;5076966;28;20051;-72
2023/10/18 10:39:44;;;;;;;6.38;2.53;;;;;;;;;;5075283;28;20120;-73
2023/10/18 10:42:19;;;;;;;8.60;2.88;;;;;;;;;;5076367;28;20032;-76
2023/10/18 10:44:54;;;;;;;7.75;3.08;;;;;;;;;;5073678;28;20040;-75
2023/10/18 10:47:31;;;;;;;8.32;3.63;;;;;;;;;;5075331;28;20080;-76
2023/10/18 10:50:00;;;;;;;9.43;2.92;;;;;;;;;;5076426;28;20043;-76
2023/10/18 10:52:29;;;;;;;6.43;2.60;;;;;;;;;;5077174;28;20032;-75
2023/10/18 10:55:24;;;;;;;9.75;3.03;;;;;;;;;;5076471;28;20036;-76
2023/10/18 10:57:49;;;;;;;9.73;2.80;;;;;;;;;;5065382;28;20044;-74
2023/10/18 11:03:18;;;;;;;3.55;2.30;;;;;;;;;;5074311;28;20587;-75
2023/10/18 11:05:45;;;;;;;3.88;2.33;;;;;;;;;;5076203;28;20039;-77
2023/10/18 11:08:12;;;;;;;9.38;2.92;;;;;;;;;;5077707;28;20032;-78
2023/10/18 11:10:39;;;;;;;5.97;2.38;;;;;;;;;;5076576;28;20021;-77
2023/10/18 11:13:06;;;;;;;5.13;2.47;;;;;;;;;;5072604;28;20575;-72
2023/10/18 11:15:31;;;;;;;4.85;2.35;;;;;;;;;;5074087;28;20028;-72
2023/10/18 11:18:09;;;;;;;4.30;2.35;;;;;;;;;;5074187;28;20027;-72
2023/10/18 11:20:48;;;;;;;4.70;2.05;;;;;;;;;;5073160;28;20031;-72
2023/10/18 11:23:13;;;;;;;7.00;2.42;;;;;;;;;;5091263;28;20036;-73
2023/10/18 11:25:41;;;;;;;10.20;2.53;;;;;;;;;;5076944;28;20020;-72
2023/10/18 11:28:20;;;;;;;6.90;2.58;;;;;;;;;;5072490;28;20781;-71
2023/10/18 11:30:45;;;;;;;4.97;2.33;;;;;;;;;;5076748;28;20028;-73
2023/10/18 11:33:16;;;;;;;4.85;2.42;;;;;;;;;;5075386;28;20041;-70
2023/10/18 11:35:48;;;;;;;3.97;2.10;;;;;;;;;;5072969;28;20150;-73
2023/10/18 11:38:14;;;;;;;3.50;2.17;;;;;;;;;;5075705;28;20039;-72
2023/10/18 11:40:48;;;;;;;9.15;2.60;;;;;;;;;;5073425;28;20021;-74
2023/10/18 11:43:21;;;;;;;6.93;2.28;;;;;;;;;;5077567;28;20027;-73
2023/10/18 11:45:48;;;;;;;10.50;2.53;;;;;;;;;;5075798;28;20012;-73
2023/10/18 11:48:14;;;;;;;6.63;2.47;;;;;;;;;;5074569;28;20055;-74
2023/10/18 11:50:50;;;;;;;4.95;2.40;;;;;;;;;;5089774;28;20072;-72
2023/10/18 11:53:17;;;;;;;9.98;2.47;;;;;;;;;;5074009;28;20047;-73
2023/10/18 11:55:51;;;;;;;9.07;2.33;;;;;;;;;;5075362;28;20053;-73
2023/10/18 11:58:17;;;;;;;12.07;2.70;;;;;;;;;;5072510;28;20059;-73
2023/10/18 12:00:47;;;;;;;7.70;2.57;;;;;;;;;;5058374;28;20052;-73
2023/10/18 12:03:12;;;;;;;3.78;2.30;;;;;;;;;;5089339;28;20338;-72
2023/10/18 12:05:42;;;;;;;7.80;2.70;;;;;;;16.48;nan;100673.53;5072638;28;20036;-75
2023/10/18 12:08:12;;;;;;;;;;;;;;;;;;5074830;28;20070;-75
2023/10/18 12:10:37;;;;;;;5.78;2.60;;;;;;;;;;5074498;28;19912;-75
2023/10/18 12:13:06;;;;;;;4.32;2.10;;;;;;;;;;5073730;28;20062;-75
2023/10/18 12:15:31;;;;;;;5.87;2.37;;;;;;;;;;5075226;28;20044;-74
2023/10/18 12:17:57;;;;;;;4.38;2.40;;;;;;;;;;5073069;28;20449;-74
2023/10/18 12:20:34;;;;;;;3.80;2.37;;;;;;;;;;5077918;28;20060;-74
2023/10/18 12:23:02;;;;;;;6.80;2.75;;;;;;;;;;5072586;28;20734;-75
2023/10/18 12:25:27;;;;;;;8.05;2.70;;;;;;;;;;5063980;28;20029;-73
2023/10/18 12:27:52;;;;;;;3.93;2.50;;;;;;;;;;5060044;28;20028;-74
2023/10/18 12:30:27;;;;;;;3.80;2.63;;;;;;;;;;5074927;28;20032;-74
2023/10/18 12:32:54;;;;;;;9.48;2.55;;;;;;;;;;5059065;28;20379;-74
2023/10/18 12:35:28;;;;;;;5.78;2.30;;;;;;;;;;5074233;28;20032;-73
2023/10/18 12:37:54;;;;;;;5.65;2.30;;;;;;;;;;5090547;28;20623;-73
2023/10/18 12:40:39;;;;;;;5.85;2.28;;;;;;;;;;5074209;28;20048;-74
2023/10/18 12:43:07;;;;;;;4.25;2.40;;;;;;;;;;5073956;28;20020;-74
2023/10/18 12:45:45;;;;;;;3.55;2.15;;;;;;;;;;5073486;28;20693;-74
2023/10/18 12:48:11;;;;;;;5.72;2.72;;;;;;;;;;5075913;28;20040;-74
2023/10/18 12:50:37;;;;;;;4.22;2.40;;;;;;;;;;5077905;28;20019;-73
2023/10/18 12:56:31;;;;;;;4.25;2.30;;;;;;;;;;5007305;28;20384;-72
2023/10/18 12:59:12;;;;;;;5.28;2.58;;;;;;;;;;5001334;28;20045;-76
2023/10/18 13:04:07;;;;;;;4.25;2.25;;;;;;;;;;5003499;28;20606;-77
2023/10/18 13:06:41;;;;;;;4.50;2.45;;;;;;;;;;5004903;28;20030;-77
2023/10/18 13:09:15;;;;;;;8.23;2.38;;;;;;;;;;5003623;28;20095;-74
2023/10/18 13:14:17;;;;;;;7.43;2.70;;;;;;;;;;5004301;28;20097;-74
2023/10/18 13:16:45;;;;;;;4.57;2.40;;;;;;;;;;5004660;28;20037;-77
2023/10/18 13:19:14;;;;;;;5.45;2.45;;;;;;;;;;5018881;28;20504;-76
2023/10/18 13:21:39;;;;;;;6.93;2.50;;;;;;;;;;5002958;28;20029;-76
2023/10/18 13:24:17;;;;;;;7.25;2.67;;;;;;;;;;5003048;28;20041;-78
2023/10/18 13:26:45;;;;;;;5.50;2.47;;;;;;;;;;5003207;28;20025;-77
2023/10/18 13:30:00;;;;;;;8.63;2.53;;;;;;;;;;5017419;28;20045;-73
2023/10/18 13:32:06;;;;;;;3.00;2.03;;;;;;;;;;5065956;28;20055;-74
2023/10/18 13:34:37;;;;;;;7.38;2.40;;;;;;;;;;5072739;28;20024;-73
2023/10/18 13:37:04;;;;;;;6.90;2.60;;;;;;;;;;5073203;28;20077;-74
2023/10/18 13:39:29;;;;;;;5.13;2.20;;;;;;;;;;5072144;28;20075;-77
2023/10/18 13:41:55;;;;;;;4.72;2.40;;;;;;;17.20;nan;100562.88;5076509;28;20051;-77
2023/10/18 13:44:22;;;;;;;4.00;2.33;;;;;;;;;;5073452;28;20031;-73
2023/10/18 13:46:50;;;;;;;6.72;2.30;;;;;;;;;;5060394;28;20086;-73
2023/10/18 13:49:17;;;;;;;6.88;2.33;;;;;;;17.23;nan;100549.03;5063285;28;20032;-73
2023/10/18 13:51:42;;;;;;;5.03;2.25;;;;;;;;;;5074257;28;20103;-75
2023/10/18 13:54:07;;;;;;;6.65;2.58;;;;;;;;;;5074554;28;20180;-76
2023/10/18 13:56:34;;;;;;;3.17;2.20;;;;;;;;;;5076450;28;20486;-75
2023/10/18 13:59:01;;;;;;;6.13;2.70;;;;;;;;;;5077754;28;20407;-73
2023/10/18 14:01:27;;;;;;;7.55;2.58;;;;;;;;;;5088838;28;20116;-73
2023/10/18 14:03:54;;;;;;;3.78;2.40;;;;;;;;;;5076278;28;20139;-74
2023/10/18 14:06:19;;;;;;;5.43;2.53;;;;;;;;;;5076420;28;20063;-75
2023/10/18 14:08:45;;;;;;;4.47;2.30;;;;;;;;;;5080631;28;20028;-77
2023/10/18 14:11:13;;;;;;;5.35;2.25;;;;;;;;;;5068544;28;21182;-78
2023/10/18 14:13:39;;;;;;;6.47;2.20;;;;;;;;;;5077209;28;20024;-77
2023/10/18 14:16:04;;;;;;;3.58;2.30;;;;;;;;;;5078987;28;20375;-79
2023/10/18 14:18:31;;;;;;;3.53;1.95;;;;;;;;;;5076401;28;20027;-77
2023/10/18 14:21:04;;;;;;;7.55;2.20;;;;;;;;;;5079316;28;20028;-76
2023/10/18 14:23:31;;;;;;;4.95;2.30;;;;;;;;;;5054509;28;20028;-75
2023/10/18 14:25:56;;;;;;;7.47;2.30;;;;;;;;;;5077389;28;20123;-75
2023/10/18 14:28:21;;;;;;;4.47;2.10;;;;;;;;;;5078366;28;20122;-76
2023/10/18 14:30:47;;;;;;;4.37;2.30;;;;;;;;;;5067000;28;20051;-78
2023/10/18 14:33:12;;;;;;;5.55;2.45;;;;;;;;;;5057168;28;20032;-76
2023/10/18 14:35:37;;;;;;;6.65;2.30;;;;;;;;;;5060397;28;20059;-77
2023/10/18 14:38:06;;;;;;;4.38;2.42;;;;;;;;;;5078976;28;20750;-75
2023/10/18 14:40:34;;;;;;;6.30;2.63;;;;;;;;;;5075322;28;20032;-75
2023/10/18 14:43:00;;;;;;;5.97;2.58;;;;;;;;;;5075562;28;20087;-74
2023/10/18 14:45:32;;;;;;;6.07;2.55;;;;;;;;;;5075403;28;20183;-74
2023/10/18 14:47:57;;;;;;;3.90;2.13;;;;;;;;;;5062107;28;20038;-74
2023/10/18 14:50:22;;;;;;;6.97;2.55;;;;;;;;;;5078754;28;20036;-74
2023/10/18 14:52:47;;;;;;;4.07;2.30;;;;;;;;;;5077045;28;20039;-74
2023/10/18 14:55:13;;;;;;;5.10;2.00;;;;;;;;;;5079628;28;21565;-74
2023/10/18 14:57:41;;;;;;;5.17;2.23;;;;;;;;;;5076378;28;20085;-73
2023/10/18 15:00:11;;;;;;;4.30;2.30;;;;;;;;;;5059708;28;20311;-74
2023/10/18 15:02:37;;;;;;;5.18;2.20;;;;;;;;;;5076575;28;20438;-73
2023/10/18 15:05:04;;;;;;;4.97;2.25;;;;;;;;;;5073497;28;20032;-74
2023/10/18 15:07:29;;;;;;;4.20;2.17;;;;;;;;;;5079548;28;20390;-77
2023/10/18 15:09:54;;;;;;;3.30;2.03;;;;;;;;;;5075960;28;20026;-78
2023/10/18 15:12:21;;;;;;;4.03;2.53;;;;;;;;;;5076488;28;20277;-74
2023/10/18 15:14:46;;;;;;;5.38;2.60;;;;;;;;;;5075510;28;20029;-78
2023/10/18 15:17:12;;;;;;;6.63;2.30;;;;;;;;;;5077365;28;20043;-73
2023/10/18 15:19:37;;;;;;;9.18;3.10;;;;;;;;;;5076950;28;20370;-73
2023/10/18 15:22:03;;;;;;;7.35;2.42;;;;;;;;;;5065296;28;20031;-73